sensor_id;sensor_type;location;lat;lon;timestamp;pressure;altitude;pressure_sealevel;temperature;humidity
15263;BME280;7733;51.554;13.590;2022-10-26T00:00:36;100756.00;;;11.67;99.36
15263;BME280;7733;51.554;13.590;2022-10-26T00:03:01;100751.81;;;11.52;100.00
15263;BME280;7733;51.554;13.590;2022-10-26T00:05:27;100747.16;;;11.72;99.24
15263;BME280;7733;51.554;13.590;2022-10-26T00:07:53;100737.59;;;11.68;99.90
15263;BME280;7733;51.554;13.590;2022-10-26T00:10:18;100748.03;;;11.74;99.14
15263;BME280;7733;51.554;13.590;2022-10-26T00:12:49;100752.44;;;11.72;99.61
15263;BME280;7733;51.554;13.590;2022-10-26T00:15:16;100747.13;;;11.75;98.28
15263;BME280;7733;51.554;13.590;2022-10-26T00:17:42;100749.81;;;11.72;98.87
15263;BME280;7733;51.554;13.590;2022-10-26T00:20:08;100748.91;;;11.73;98.32
15263;BME280;7733;51.554;13.590;2022-10-26T00:22:34;100756.06;;;11.64;99.62
15263;BME280;7733;51.554;13.590;2022-10-26T00:24:59;100753.50;;;11.56;99.15
15263;BME280;7733;51.554;13.590;2022-10-26T00:27:25;100757.03;;;11.55;99.72
15263;BME280;7733;51.554;13.590;2022-10-26T00:29:50;100760.50;;;11.57;98.47
15263;BME280;7733;51.554;13.590;2022-10-26T00:32:16;100763.25;;;11.48;98.21
15263;BME280;7733;51.554;13.590;2022-10-26T00:34:42;100758.84;;;11.50;98.61
15263;BME280;7733;51.554;13.590;2022-10-26T00:37:07;100772.91;;;11.46;98.67
15263;BME280;7733;51.554;13.590;2022-10-26T00:39:34;100772.97;;;11.38;99.34
15263;BME280;7733;51.554;13.590;2022-10-26T00:41:59;100772.13;;;11.35;99.22
15263;BME280;7733;51.554;13.590;2022-10-26T00:45:14;100767.94;;;11.18;100.00
15263;BME280;7733;51.554;13.590;2022-10-26T00:47:57;100775.72;;;11.27;99.23
15263;BME280;7733;51.554;13.590;2022-10-26T00:50:33;100768.66;;;11.33;99.30
15263;BME280;7733;51.554;13.590;2022-10-26T00:53:03;100774.91;;;11.19;100.00
15263;BME280;7733;51.554;13.590;2022-10-26T00:55:34;100766.94;;;11.32;100.00
15263;BME280;7733;51.554;13.590;2022-10-26T00:58:06;100770.41;;;11.32;99.54
15263;BME280;7733;51.554;13.590;2022-10-26T01:00:33;100763.38;;;11.34;99.95
15263;BME280;7733;51.554;13.590;2022-10-26T01:03:03;100765.44;;;11.08;100.00
15263;BME280;7733;51.554;13.590;2022-10-26T01:05:31;100773.22;;;11.15;100.00
15263;BME280;7733;51.554;13.590;2022-10-26T01:07:59;100772.16;;;11.33;99.94
15263;BME280;7733;51.554;13.590;2022-10-26T01:10:26;100773.16;;;11.24;99.63
15263;BME280;7733;51.554;13.590;2022-10-26T01:12:54;100766.16;;;11.20;98.54
15263;BME280;7733;51.554;13.590;2022-10-26T01:15:29;100769.59;;;11.28;98.55
15263;BME280;7733;51.554;13.590;2022-10-26T01:18:11;100767.97;;;11.15;98.79
15263;BME280;7733;51.554;13.590;2022-10-26T01:20:57;100764.41;;;11.22;98.07
15263;BME280;7733;51.554;13.590;2022-10-26T01:23:55;100767.13;;;11.13;97.80
15263;BME280;7733;51.554;13.590;2022-10-26T01:26:52;100765.38;;;11.14;97.66
15263;BME280;7733;51.554;13.590;2022-10-26T01:30:11;100766.19;;;11.19;97.29
15263;BME280;7733;51.554;13.590;2022-10-26T01:32:43;100764.56;;;11.07;97.94
15263;BME280;7733;51.554;13.590;2022-10-26T01:35:46;100760.38;;;10.88;98.95
15263;BME280;7733;51.554;13.590;2022-10-26T01:38:29;100764.81;;;10.83;97.99
15263;BME280;7733;51.554;13.590;2022-10-26T01:41:29;100765.75;;;10.71;98.13
15263;BME280;7733;51.554;13.590;2022-10-26T01:44:03;100757.06;;;10.66;98.09
15263;BME280;7733;51.554;13.590;2022-10-26T01:46:35;100760.44;;;10.79;98.24
15263;BME280;7733;51.554;13.590;2022-10-26T01:49:09;100762.22;;;10.77;97.39
15263;BME280;7733;51.554;13.590;2022-10-26T01:51:39;100759.50;;;10.89;97.36
15263;BME280;7733;51.554;13.590;2022-10-26T01:54:06;100756.16;;;10.69;98.45
15263;BME280;7733;51.554;13.590;2022-10-26T01:56:38;100750.78;;;10.85;97.74
15263;BME280;7733;51.554;13.590;2022-10-26T02:02:28;100748.22;;;10.76;98.40
15263;BME280;7733;51.554;13.590;2022-10-26T02:08:13;100751.84;;;10.60;97.79
15263;BME280;7733;51.554;13.590;2022-10-26T02:11:00;100753.59;;;10.59;97.49
15263;BME280;7733;51.554;13.590;2022-10-26T02:18:51;100761.50;;;10.58;96.11
15263;BME280;7733;51.554;13.590;2022-10-26T02:21:29;100750.13;;;10.59;96.72
15263;BME280;7733;51.554;13.590;2022-10-26T02:23:58;100756.50;;;10.20;97.24
15263;BME280;7733;51.554;13.590;2022-10-26T02:26:27;100752.91;;;10.38;97.96
15263;BME280;7733;51.554;13.590;2022-10-26T02:28:59;100752.97;;;10.30;97.77
15263;BME280;7733;51.554;13.590;2022-10-26T02:31:28;100751.22;;;10.29;97.46
15263;BME280;7733;51.554;13.590;2022-10-26T02:33:58;100759.16;;;10.14;97.32
15263;BME280;7733;51.554;13.590;2022-10-26T02:36:30;100749.53;;;10.22;97.77
15263;BME280;7733;51.554;13.590;2022-10-26T02:39:03;100752.06;;;10.34;97.80
15263;BME280;7733;51.554;13.590;2022-10-26T02:41:31;100749.53;;;10.25;97.49
15263;BME280;7733;51.554;13.590;2022-10-26T02:44:26;100745.06;;;10.34;98.72
15263;BME280;7733;51.554;13.590;2022-10-26T02:46:55;100749.53;;;10.22;97.90
15263;BME280;7733;51.554;13.590;2022-10-26T02:49:21;100745.16;;;10.18;98.61
15263;BME280;7733;51.554;13.590;2022-10-26T02:52:15;100751.19;;;10.33;97.74
15263;BME280;7733;51.554;13.590;2022-10-26T02:55:24;100750.41;;;10.16;98.12
15263;BME280;7733;51.554;13.590;2022-10-26T02:57:58;100760.97;;;10.04;97.87
15263;BME280;7733;51.554;13.590;2022-10-26T03:00:25;100749.56;;;10.10;97.80
15263;BME280;7733;51.554;13.590;2022-10-26T03:02:58;100751.25;;;10.20;97.10
15263;BME280;7733;51.554;13.590;2022-10-26T03:05:27;100740.81;;;10.21;97.60
15263;BME280;7733;51.554;13.590;2022-10-26T03:07:54;100732.91;;;10.24;97.60
15263;BME280;7733;51.554;13.590;2022-10-26T03:10:20;100741.63;;;10.19;97.47
15263;BME280;7733;51.554;13.590;2022-10-26T03:12:47;100750.47;;;10.09;97.84
15263;BME280;7733;51.554;13.590;2022-10-26T03:15:13;100750.50;;;9.99;98.35
15263;BME280;7733;51.554;13.590;2022-10-26T03:17:39;100751.38;;;9.98;98.16
15263;BME280;7733;51.554;13.590;2022-10-26T03:20:06;100746.25;;;9.80;99.84
15263;BME280;7733;51.554;13.590;2022-10-26T03:22:31;100745.25;;;10.04;98.92
15263;BME280;7733;51.554;13.590;2022-10-26T03:24:57;100746.13;;;10.04;98.58
15263;BME280;7733;51.554;13.590;2022-10-26T03:27:23;100746.25;;;9.83;97.68
15263;BME280;7733;51.554;13.590;2022-10-26T03:29:48;100751.38;;;10.04;97.63
15263;BME280;7733;51.554;13.590;2022-10-26T03:32:14;100744.50;;;9.82;98.45
15263;BME280;7733;51.554;13.590;2022-10-26T03:34:39;100741.78;;;10.02;97.91
15263;BME280;7733;51.554;13.590;2022-10-26T03:37:05;100743.56;;;9.92;98.41
15263;BME280;7733;51.554;13.590;2022-10-26T03:39:31;100747.06;;;9.91;97.88
15263;BME280;7733;51.554;13.590;2022-10-26T03:41:56;100746.13;;;9.98;97.61
15263;BME280;7733;51.554;13.590;2022-10-26T03:44:22;100740.03;;;9.96;97.94
15263;BME280;7733;51.554;13.590;2022-10-26T03:46:48;100738.41;;;9.82;97.88
15263;BME280;7733;51.554;13.590;2022-10-26T03:49:13;100741.88;;;9.82;97.49
15263;BME280;7733;51.554;13.590;2022-10-26T03:51:39;100737.41;;;9.96;97.26
15263;BME280;7733;51.554;13.590;2022-10-26T03:54:05;100734.03;;;9.79;98.26
15263;BME280;7733;51.554;13.590;2022-10-26T03:56:30;100729.63;;;9.86;97.41
15263;BME280;7733;51.554;13.590;2022-10-26T03:58:56;100738.31;;;9.92;97.21
15263;BME280;7733;51.554;13.590;2022-10-26T04:01:22;100737.50;;;9.78;97.07
15263;BME280;7733;51.554;13.590;2022-10-26T04:03:48;100739.28;;;9.76;97.01
15263;BME280;7733;51.554;13.590;2022-10-26T04:06:13;100744.53;;;9.73;96.93
15263;BME280;7733;51.554;13.590;2022-10-26T04:08:39;100735.03;;;9.54;97.25
15263;BME280;7733;51.554;13.590;2022-10-26T04:11:04;100738.50;;;9.53;98.39
15263;BME280;7733;51.554;13.590;2022-10-26T04:13:31;100737.56;;;9.69;97.20
15263;BME280;7733;51.554;13.590;2022-10-26T04:15:57;100741.97;;;9.67;97.48
15263;BME280;7733;51.554;13.590;2022-10-26T04:18:22;100744.63;;;9.52;97.54
15263;BME280;7733;51.554;13.590;2022-10-26T04:20:48;100750.75;;;9.51;97.51
15263;BME280;7733;51.554;13.590;2022-10-26T04:23:17;100755.22;;;9.12;99.49
15263;BME280;7733;51.554;13.590;2022-10-26T04:25:44;100757.84;;;9.10;99.42
15263;BME280;7733;51.554;13.590;2022-10-26T04:28:12;100753.47;;;9.14;100.00
15263;BME280;7733;51.554;13.590;2022-10-26T04:30:38;100754.31;;;9.30;98.28
15263;BME280;7733;51.554;13.590;2022-10-26T04:33:05;100750.81;;;9.32;98.55
15263;BME280;7733;51.554;13.590;2022-10-26T04:35:33;100747.34;;;9.27;98.55
15263;BME280;7733;51.554;13.590;2022-10-26T04:38:02;100744.66;;;9.49;97.08
15263;BME280;7733;51.554;13.590;2022-10-26T04:40:30;100751.69;;;9.31;97.59
15263;BME280;7733;51.554;13.590;2022-10-26T04:42:56;100749.94;;;9.29;97.89
15263;BME280;7733;51.554;13.590;2022-10-26T04:45:22;100751.66;;;9.39;97.49
15263;BME280;7733;51.554;13.590;2022-10-26T04:47:59;100743.88;;;9.18;99.69
15263;BME280;7733;51.554;13.590;2022-10-26T04:50:25;100742.06;;;9.33;99.65
15263;BME280;7733;51.554;13.590;2022-10-26T04:52:52;100748.16;;;9.37;98.80
15263;BME280;7733;51.554;13.590;2022-10-26T04:55:18;100747.28;;;9.41;98.81
15263;BME280;7733;51.554;13.590;2022-10-26T04:57:44;100742.03;;;9.45;98.68
15263;BME280;7733;51.554;13.590;2022-10-26T05:00:10;100732.44;;;9.48;99.10
15263;BME280;7733;51.554;13.590;2022-10-26T05:02:36;100729.00;;;9.32;99.21
15263;BME280;7733;51.554;13.590;2022-10-26T05:05:02;100736.81;;;9.42;98.91
15263;BME280;7733;51.554;13.590;2022-10-26T05:07:27;100735.09;;;9.41;98.53
15263;BME280;7733;51.554;13.590;2022-10-26T05:09:53;100735.94;;;9.39;98.48
15263;BME280;7733;51.554;13.590;2022-10-26T05:12:18;100732.47;;;9.41;98.02
15263;BME280;7733;51.554;13.590;2022-10-26T05:14:44;100734.19;;;9.38;97.62
15263;BME280;7733;51.554;13.590;2022-10-26T05:17:10;100733.41;;;9.24;97.85
15263;BME280;7733;51.554;13.590;2022-10-26T05:19:35;100737.72;;;9.29;97.92
15263;BME280;7733;51.554;13.590;2022-10-26T05:22:01;100745.63;;;9.15;97.88
15263;BME280;7733;51.554;13.590;2022-10-26T05:24:27;100737.75;;;9.20;97.30
15263;BME280;7733;51.554;13.590;2022-10-26T05:26:52;100737.78;;;9.22;97.12
15263;BME280;7733;51.554;13.590;2022-10-26T05:29:18;100729.00;;;9.29;96.81
15263;BME280;7733;51.554;13.590;2022-10-26T05:31:43;100728.16;;;9.16;97.82
15263;BME280;7733;51.554;13.590;2022-10-26T05:34:09;100738.69;;;9.05;96.96
15263;BME280;7733;51.554;13.590;2022-10-26T05:36:35;100741.25;;;9.13;96.57
15263;BME280;7733;51.554;13.590;2022-10-26T05:39:01;100730.78;;;9.16;97.04
15263;BME280;7733;51.554;13.590;2022-10-26T05:41:26;100741.28;;;9.07;96.46
15263;BME280;7733;51.554;13.590;2022-10-26T05:43:52;100742.16;;;9.09;97.17
15263;BME280;7733;51.554;13.590;2022-10-26T05:46:18;100747.41;;;8.78;98.22
15263;BME280;7733;51.554;13.590;2022-10-26T05:48:43;100748.28;;;8.96;97.59
15263;BME280;7733;51.554;13.590;2022-10-26T05:51:09;100750.91;;;9.02;97.17
15263;BME280;7733;51.554;13.590;2022-10-26T05:53:37;100747.38;;;9.13;96.78
15263;BME280;7733;51.554;13.590;2022-10-26T05:56:15;100743.03;;;9.08;97.57
15263;BME280;7733;51.554;13.590;2022-10-26T05:58:41;100740.44;;;9.03;99.46
15263;BME280;7733;51.554;13.590;2022-10-26T06:04:28;100750.91;;;8.90;99.70
15263;BME280;7733;51.554;13.590;2022-10-26T06:06:56;100755.25;;;8.91;99.46
15263;BME280;7733;51.554;13.590;2022-10-26T06:09:22;100755.28;;;8.48;100.00
15263;BME280;7733;51.554;13.590;2022-10-26T06:11:48;100760.44;;;8.10;100.00
15263;BME280;7733;51.554;13.590;2022-10-26T06:14:14;100765.63;;;7.99;100.00
15263;BME280;7733;51.554;13.590;2022-10-26T06:17:03;100771.84;;;8.62;100.00
15263;BME280;7733;51.554;13.590;2022-10-26T06:20:22;100766.59;;;8.74;100.00
15263;BME280;7733;51.554;13.590;2022-10-26T06:22:55;100761.34;;;9.00;99.80
15263;BME280;7733;51.554;13.590;2022-10-26T06:26:15;100769.22;;;8.90;100.00
15263;BME280;7733;51.554;13.590;2022-10-26T06:29:17;100775.31;;;9.07;100.00
15263;BME280;7733;51.554;13.590;2022-10-26T06:31:44;100769.16;;;9.20;99.20
15263;BME280;7733;51.554;13.590;2022-10-26T06:34:20;100763.97;;;9.05;100.00
15263;BME280;7733;51.554;13.590;2022-10-26T06:36:49;100765.72;;;8.97;100.00
15263;BME280;7733;51.554;13.590;2022-10-26T06:39:16;100767.41;;;9.27;100.00
15263;BME280;7733;51.554;13.590;2022-10-26T06:41:42;100780.56;;;9.02;100.00
15263;BME280;7733;51.554;13.590;2022-10-26T06:44:22;100777.06;;;8.88;100.00
15263;BME280;7733;51.554;13.590;2022-10-26T06:47:09;100761.28;;;9.32;99.60
15263;BME280;7733;51.554;13.590;2022-10-26T06:52:43;100782.28;;;8.80;100.00
15263;BME280;7733;51.554;13.590;2022-10-26T06:55:14;100775.28;;;9.13;100.00
15263;BME280;7733;51.554;13.590;2022-10-26T06:57:42;100784.91;;;8.71;100.00
15263;BME280;7733;51.554;13.590;2022-10-26T07:00:23;100791.00;;;8.99;100.00
15263;BME280;7733;51.554;13.590;2022-10-26T07:02:49;100790.06;;;9.31;100.00
15263;BME280;7733;51.554;13.590;2022-10-26T07:05:16;100785.69;;;9.34;100.00
15263;BME280;7733;51.554;13.590;2022-10-26T07:07:45;100789.97;;;9.66;100.00
15263;BME280;7733;51.554;13.590;2022-10-26T07:10:12;100790.88;;;9.57;100.00
15263;BME280;7733;51.554;13.590;2022-10-26T07:12:38;100790.75;;;9.91;100.00
15263;BME280;7733;51.554;13.590;2022-10-26T07:15:06;100788.94;;;9.97;100.00
15263;BME280;7733;51.554;13.590;2022-10-26T07:17:45;100791.69;;;9.74;100.00
15263;BME280;7733;51.554;13.590;2022-10-26T07:20:13;100795.97;;;9.94;100.00
15263;BME280;7733;51.554;13.590;2022-10-26T07:22:39;100792.34;;;10.21;100.00
15263;BME280;7733;51.554;13.590;2022-10-26T07:25:07;100792.31;;;10.30;100.00
15263;BME280;7733;51.554;13.590;2022-10-26T07:27:33;100788.75;;;10.42;100.00
15263;BME280;7733;51.554;13.590;2022-10-26T07:30:00;100785.13;;;10.56;100.00
15263;BME280;7733;51.554;13.590;2022-10-26T07:32:25;100792.03;;;10.70;100.00
15263;BME280;7733;51.554;13.590;2022-10-26T07:34:51;100784.91;;;10.81;100.00
15263;BME280;7733;51.554;13.590;2022-10-26T07:37:16;100787.38;;;10.99;100.00
15263;BME280;7733;51.554;13.590;2022-10-26T07:39:42;100794.28;;;11.11;100.00
15263;BME280;7733;51.554;13.590;2022-10-26T07:42:08;100782.06;;;11.07;100.00
15263;BME280;7733;51.554;13.590;2022-10-26T07:44:34;100785.41;;;11.22;100.00
15263;BME280;7733;51.554;13.590;2022-10-26T07:46:59;100787.03;;;11.33;100.00
15263;BME280;7733;51.554;13.590;2022-10-26T07:49:25;100784.41;;;11.34;100.00
15263;BME280;7733;51.554;13.590;2022-10-26T07:51:51;100789.38;;;11.62;100.00
15263;BME280;7733;51.554;13.590;2022-10-26T07:54:16;100787.50;;;11.70;100.00
15263;BME280;7733;51.554;13.590;2022-10-26T07:56:42;100784.81;;;11.74;100.00
15263;BME280;7733;51.554;13.590;2022-10-26T07:59:11;100784.81;;;11.74;100.00
15263;BME280;7733;51.554;13.590;2022-10-26T08:01:37;100775.72;;;12.04;100.00
15263;BME280;7733;51.554;13.590;2022-10-26T08:04:03;100778.34;;;12.01;100.00
15263;BME280;7733;51.554;13.590;2022-10-26T08:06:28;100778.94;;;12.25;100.00
15263;BME280;7733;51.554;13.590;2022-10-26T08:08:54;100771.75;;;12.34;100.00
15263;BME280;7733;51.554;13.590;2022-10-26T08:11:20;100783.97;;;12.38;100.00
15263;BME280;7733;51.554;13.590;2022-10-26T08:13:45;100790.56;;;12.67;100.00
15263;BME280;7733;51.554;13.590;2022-10-26T08:16:11;100783.19;;;12.87;100.00
15263;BME280;7733;51.554;13.590;2022-10-26T08:18:37;100789.16;;;12.97;100.00
15263;BME280;7733;51.554;13.590;2022-10-26T08:21:08;100793.47;;;13.02;100.00
15263;BME280;7733;51.554;13.590;2022-10-26T08:23:34;100782.69;;;13.15;100.00
15263;BME280;7733;51.554;13.590;2022-10-26T08:26:01;100777.25;;;13.27;100.00
15263;BME280;7733;51.554;13.590;2022-10-26T08:28:29;100780.22;;;13.55;100.00
15263;BME280;7733;51.554;13.590;2022-10-26T08:30:55;100790.06;;;13.45;100.00
15263;BME280;7733;51.554;13.590;2022-10-26T08:33:22;100787.97;;;13.62;100.00
15263;BME280;7733;51.554;13.590;2022-10-26T08:35:54;100783.78;;;13.94;100.00
15263;BME280;7733;51.554;13.590;2022-10-26T08:38:20;100775.59;;;14.08;100.00
15263;BME280;7733;51.554;13.590;2022-10-26T08:40:45;100784.66;;;13.94;100.00
15263;BME280;7733;51.554;13.590;2022-10-26T08:43:24;100777.22;;;14.13;100.00
15263;BME280;7733;51.554;13.590;2022-10-26T08:46:04;100770.75;;;14.26;100.00
15263;BME280;7733;51.554;13.590;2022-10-26T08:48:39;100770.41;;;14.42;100.00
15263;BME280;7733;51.554;13.590;2022-10-26T08:51:18;100768.94;;;14.67;100.00
15263;BME280;7733;51.554;13.590;2022-10-26T08:53:58;100777.41;;;14.80;100.00
15263;BME280;7733;51.554;13.590;2022-10-26T08:56:45;100766.22;;;14.70;100.00
15263;BME280;7733;51.554;13.590;2022-10-26T09:02:13;100772.63;;;14.60;100.00
15263;BME280;7733;51.554;13.590;2022-10-26T09:04:39;100766.34;;;14.66;100.00
15263;BME280;7733;51.554;13.590;2022-10-26T09:07:35;100774.22;;;14.67;100.00
15263;BME280;7733;51.554;13.590;2022-10-26T09:16:59;100772.78;;;15.24;100.00
15263;BME280;7733;51.554;13.590;2022-10-26T09:20:01;100777.38;;;15.15;100.00
15263;BME280;7733;51.554;13.590;2022-10-26T09:22:49;100777.06;;;15.28;100.00
15263;BME280;7733;51.554;13.590;2022-10-26T09:25:22;100775.00;;;15.37;99.57
15263;BME280;7733;51.554;13.590;2022-10-26T09:27:56;100777.09;;;15.59;100.00
15263;BME280;7733;51.554;13.590;2022-10-26T09:30:23;100770.31;;;15.48;98.98
15263;BME280;7733;51.554;13.590;2022-10-26T09:32:54;100772.66;;;15.59;98.95
15263;BME280;7733;51.554;13.590;2022-10-26T09:35:26;100773.97;;;15.75;98.99
15263;BME280;7733;51.554;13.590;2022-10-26T09:38:32;100768.19;;;15.63;98.56
15263;BME280;7733;51.554;13.590;2022-10-26T09:41:07;100772.16;;;15.77;98.01
15263;BME280;7733;51.554;13.590;2022-10-26T09:43:56;100773.47;;;15.63;98.28
15263;BME280;7733;51.554;13.590;2022-10-26T09:49:32;100781.44;;;15.61;98.85
15263;BME280;7733;51.554;13.590;2022-10-26T09:52:00;100774.44;;;15.90;98.73
15263;BME280;7733;51.554;13.590;2022-10-26T09:54:26;100785.50;;;16.04;97.16
15263;BME280;7733;51.554;13.590;2022-10-26T09:56:55;100782.41;;;16.18;97.28
15263;BME280;7733;51.554;13.590;2022-10-26T09:59:24;100781.59;;;16.16;97.99
15263;BME280;7733;51.554;13.590;2022-10-26T10:01:50;100784.53;;;16.34;97.17
15263;BME280;7733;51.554;13.590;2022-10-26T10:04:19;100783.91;;;16.54;96.71
15263;BME280;7733;51.554;13.590;2022-10-26T10:06:50;100786.44;;;16.57;96.41
15263;BME280;7733;51.554;13.590;2022-10-26T10:09:22;100779.63;;;16.50;95.52
15263;BME280;7733;51.554;13.590;2022-10-26T10:11:57;100784.75;;;16.55;95.75
15263;BME280;7733;51.554;13.590;2022-10-26T10:14:36;100792.53;;;16.89;95.81
15263;BME280;7733;51.554;13.590;2022-10-26T10:17:06;100782.03;;;16.86;93.50
15263;BME280;7733;51.554;13.590;2022-10-26T10:19:37;100779.97;;;17.19;94.89
15263;BME280;7733;51.554;13.590;2022-10-26T10:24:42;100778.34;;;17.40;92.05
15263;BME280;7733;51.554;13.590;2022-10-26T10:27:18;100774.84;;;17.39;92.04
15263;BME280;7733;51.554;13.590;2022-10-26T10:29:47;100772.91;;;17.69;91.91
15263;BME280;7733;51.554;13.590;2022-10-26T10:32:20;100776.44;;;17.70;89.77
15263;BME280;7733;51.554;13.590;2022-10-26T10:34:52;100773.00;;;17.66;90.00
15263;BME280;7733;51.554;13.590;2022-10-26T10:37:27;100763.16;;;17.93;89.02
15263;BME280;7733;51.554;13.590;2022-10-26T10:40:07;100765.97;;;18.12;89.96
15263;BME280;7733;51.554;13.590;2022-10-26T10:42:38;100766.16;;;18.29;88.65
15263;BME280;7733;51.554;13.590;2022-10-26T10:45:12;100770.91;;;18.21;87.56
15263;BME280;7733;51.554;13.590;2022-10-26T10:48:03;100762.97;;;18.43;87.51
15263;BME280;7733;51.554;13.590;2022-10-26T10:50:31;100759.53;;;18.39;85.25
15263;BME280;7733;51.554;13.590;2022-10-26T10:53:18;100762.84;;;18.68;86.15
15263;BME280;7733;51.554;13.590;2022-10-26T10:56:20;100757.28;;;18.74;86.30
15263;BME280;7733;51.554;13.590;2022-10-26T10:59:14;100759.00;;;18.31;84.95
15263;BME280;7733;51.554;13.590;2022-10-26T11:01:49;100765.31;;;18.72;84.00
15263;BME280;7733;51.554;13.590;2022-10-26T11:07:18;100766.06;;;19.17;83.90
15263;BME280;7733;51.554;13.590;2022-10-26T11:09:48;100766.69;;;19.43;83.97
15263;BME280;7733;51.554;13.590;2022-10-26T11:12:33;100754.16;;;19.66;83.14
15263;BME280;7733;51.554;13.590;2022-10-26T11:15:12;100755.97;;;19.65;82.36
15263;BME280;7733;51.554;13.590;2022-10-26T11:18:16;100760.50;;;19.82;82.74
15263;BME280;7733;51.554;13.590;2022-10-26T11:20:55;100756.63;;;19.70;82.24
15263;BME280;7733;51.554;13.590;2022-10-26T11:23:45;100751.53;;;19.85;81.79
15263;BME280;7733;51.554;13.590;2022-10-26T11:26:21;100752.88;;;20.12;82.59
15263;BME280;7733;51.554;13.590;2022-10-26T11:29:03;100763.22;;;20.18;81.85
15263;BME280;7733;51.554;13.590;2022-10-26T11:31:39;100760.31;;;20.05;81.95
15263;BME280;7733;51.554;13.590;2022-10-26T11:37:51;100753.44;;;20.00;80.22
15263;BME280;7733;51.554;13.590;2022-10-26T11:40:43;100745.81;;;20.11;81.36
15263;BME280;7733;51.554;13.590;2022-10-26T11:43:44;100748.81;;;20.41;81.14
15263;BME280;7733;51.554;13.590;2022-10-26T11:46:16;100746.00;;;20.63;79.73
15263;BME280;7733;51.554;13.590;2022-10-26T11:48:53;100744.78;;;20.32;80.23
15263;BME280;7733;51.554;13.590;2022-10-26T11:51:37;100744.00;;;20.30;79.69
15263;BME280;7733;51.554;13.590;2022-10-26T11:54:39;100744.09;;;20.48;79.94
15263;BME280;7733;51.554;13.590;2022-10-26T11:57:09;100740.09;;;20.56;79.70
15263;BME280;7733;51.554;13.590;2022-10-26T11:59:44;100744.09;;;20.48;78.78
15263;BME280;7733;51.554;13.590;2022-10-26T12:02:20;100734.22;;;19.74;81.24
15263;BME280;7733;51.554;13.590;2022-10-26T12:07:44;100737.25;;;20.23;79.51
15263;BME280;7733;51.554;13.590;2022-10-26T12:10:31;100741.66;;;20.24;80.01
15263;BME280;7733;51.554;13.590;2022-10-26T12:13:37;100742.44;;;20.45;78.96
15263;BME280;7733;51.554;13.590;2022-10-26T12:16:23;100738.31;;;20.19;80.38
15263;BME280;7733;51.554;13.590;2022-10-26T12:18:59;100746.13;;;20.43;79.27
15263;BME280;7733;51.554;13.590;2022-10-26T12:21:31;100748.97;;;20.19;80.04
15263;BME280;7733;51.554;13.590;2022-10-26T12:27:01;100750.19;;;20.50;79.88
15263;BME280;7733;51.554;13.590;2022-10-26T12:30:13;100751.91;;;20.51;79.86
15263;BME280;7733;51.554;13.590;2022-10-26T12:35:42;100751.09;;;20.85;78.48
15263;BME280;7733;51.554;13.590;2022-10-26T12:40:47;100753.69;;;20.69;80.61
15263;BME280;7733;51.554;13.590;2022-10-26T12:48:46;100755.38;;;20.53;80.42
15263;BME280;7733;51.554;13.590;2022-10-26T12:56:38;100752.88;;;20.50;78.59
15263;BME280;7733;51.554;13.590;2022-10-26T12:59:34;100752.00;;;20.49;78.92
15263;BME280;7733;51.554;13.590;2022-10-26T13:08:40;100734.63;;;20.77;78.20
15263;BME280;7733;51.554;13.590;2022-10-26T13:13:44;100743.03;;;21.04;77.86
15263;BME280;7733;51.554;13.590;2022-10-26T13:16:16;100739.63;;;21.00;78.46
15263;BME280;7733;51.554;13.590;2022-10-26T13:18:44;100738.47;;;21.23;78.12
15263;BME280;7733;51.554;13.590;2022-10-26T13:21:16;100736.56;;;21.42;77.05
15263;BME280;7733;51.554;13.590;2022-10-26T13:23:46;100736.88;;;21.36;78.17
15263;BME280;7733;51.554;13.590;2022-10-26T13:26:26;100738.75;;;21.17;78.14
15263;BME280;7733;51.554;13.590;2022-10-26T13:28:55;100749.31;;;20.85;77.99
15263;BME280;7733;51.554;13.590;2022-10-26T13:34:08;100751.41;;;20.79;78.73
15263;BME280;7733;51.554;13.590;2022-10-26T13:37:00;100741.69;;;20.42;80.44
15263;BME280;7733;51.554;13.590;2022-10-26T13:39:34;100746.03;;;20.25;80.60
15263;BME280;7733;51.554;13.590;2022-10-26T13:42:01;100750.50;;;20.44;80.39
15263;BME280;7733;51.554;13.590;2022-10-26T13:44:58;100748.53;;;20.28;82.02
15263;BME280;7733;51.554;13.590;2022-10-26T13:47:44;100749.09;;;20.35;81.85
15263;BME280;7733;51.554;13.590;2022-10-26T13:50:18;100747.84;;;20.44;80.59
15263;BME280;7733;51.554;13.590;2022-10-26T13:52:49;100751.88;;;19.96;83.01
15263;BME280;7733;51.554;13.590;2022-10-26T13:55:35;100756.63;;;20.08;82.58
15263;BME280;7733;51.554;13.590;2022-10-26T13:58:28;100758.56;;;19.86;82.83
15263;BME280;7733;51.554;13.590;2022-10-26T14:01:15;100751.56;;;20.21;82.10
15263;BME280;7733;51.554;13.590;2022-10-26T14:03:43;100748.97;;;20.00;83.14
15263;BME280;7733;51.554;13.590;2022-10-26T14:06:33;100751.53;;;19.85;83.83
15263;BME280;7733;51.554;13.590;2022-10-26T14:09:05;100749.44;;;20.10;83.53
15263;BME280;7733;51.554;13.590;2022-10-26T14:11:51;100746.38;;;20.18;82.91
15263;BME280;7733;51.554;13.590;2022-10-26T14:14:23;100749.72;;;20.23;82.23
15263;BME280;7733;51.554;13.590;2022-10-26T14:16:52;100755.44;;;20.32;82.14
15263;BME280;7733;51.554;13.590;2022-10-26T14:21:50;100757.41;;;20.29;82.19
15263;BME280;7733;51.554;13.590;2022-10-26T14:24:27;100755.63;;;20.11;82.73
15263;BME280;7733;51.554;13.590;2022-10-26T14:26:53;100764.63;;;20.08;83.18
15263;BME280;7733;51.554;13.590;2022-10-26T14:29:22;100754.44;;;20.16;82.92
15263;BME280;7733;51.554;13.590;2022-10-26T14:31:50;100754.44;;;20.16;82.30
15263;BME280;7733;51.554;13.590;2022-10-26T14:34:17;100760.72;;;20.15;82.53
15263;BME280;7733;51.554;13.590;2022-10-26T14:39:44;100765.81;;;20.01;83.31